NCAR-RAP Real-Time Weather Data

Output produced by METARs form (27 May 2017  08:12 UTC)
found at http://weather.rap.ucar.edu/surface/
 
Conditions at: KALB observed 27 May 2017  07:51 UTC
Temperature: 12.2°C (54°F)
Dewpoint: 10.6°C (51°F) [RH = 90%]
Pressure (altimeter): 29.84 inches Hg (1010.6 mb)
[Sea-level pressure: 1010.6 mb]
Winds: from the N (350 degrees) at 3 MPH (3 knots; 1.6 m/s)
Visibility: 10 or more miles (16+ km)
Ceiling: 3300 feet AGL
Clouds: few clouds at 100 feet AGL
scattered clouds at 1200 feet AGL
overcast cloud deck at 3300 feet AGL
Present Weather: no significant weather observed at this time
KALB 270751Z 35003KT 10SM FEW001 SCT012 OVC033 12/11 A2984 RMK AO2 DZE12 SLP106 P0000 T01220106

Conditions at: KALB observed 27 May 2017  07:27 UTC
Temperature: 12.2°C (54°F)
Dewpoint: 10.6°C (51°F) [RH = 90%]
Pressure (altimeter): 29.84 inches Hg (1010.6 mb)
Winds: from the N (360 degrees) at 3 MPH (3 knots; 1.6 m/s)
Visibility: 10 or more miles (16+ km)
Ceiling: 3300 feet AGL
Clouds: few clouds at 800 feet AGL
scattered clouds at 1200 feet AGL
overcast cloud deck at 3300 feet AGL
Present Weather: no significant weather observed at this time
KALB 270727Z 36003KT 10SM FEW008 SCT012 OVC033 12/11 A2984 RMK AO2 DZE12 P0000 T01220106

Conditions at: KALB observed 27 May 2017  06:51 UTC
Temperature: 12.2°C (54°F)
Dewpoint: 10.6°C (51°F) [RH = 90%]
Pressure (altimeter): 29.83 inches Hg (1010.2 mb)
[Sea-level pressure: 1010.3 mb]
Winds: from the NNE (30 degrees) at 3 MPH (3 knots; 1.6 m/s)
Visibility: 10 or more miles (16+ km)
Ceiling: 1200 feet AGL
Clouds: few clouds at 800 feet AGL
broken clouds at 1200 feet AGL
overcast cloud deck at 2900 feet AGL
Present Weather: -DZ  (light drizzle)
KALB 270651Z 03003KT 10SM -DZ FEW008 BKN012 OVC029 12/11 A2983 RMK AO2 DZB20 SLP103 PCPN VRY LGT P0000 T01220106

Conditions at: KALB observed 27 May 2017  06:20 UTC
Temperature: 12.2°C (54°F)
Dewpoint: 10.6°C (51°F) [RH = 90%]
Pressure (altimeter): 29.83 inches Hg (1010.2 mb)
Winds: from the N (360 degrees) at 5 MPH (4 knots; 2.1 m/s)
Visibility: 10 or more miles (16+ km)
Ceiling: 1300 feet AGL
Clouds: few clouds at 200 feet AGL
broken clouds at 1300 feet AGL
overcast cloud deck at 3200 feet AGL
Present Weather: -DZ  (light drizzle)
KALB 270620Z 36004KT 10SM -DZ FEW002 BKN013 OVC032 12/11 A2983 RMK AO2 DZB20 P0000 T01220106

Conditions at: KALB observed 27 May 2017  06:01 UTC
Temperature: 12.2°C (54°F)
Dewpoint: 10.6°C (51°F) [RH = 90%]
Pressure (altimeter): 29.82 inches Hg (1009.9 mb)
Winds: from the N (10 degrees) at 3 MPH (3 knots; 1.6 m/s)
Visibility: 10 or more miles (16+ km)
Ceiling: 3200 feet AGL
Clouds: few clouds at 200 feet AGL
scattered clouds at 1400 feet AGL
overcast cloud deck at 3200 feet AGL
Present Weather: no significant weather observed at this time
KALB 270601Z 01003KT 10SM FEW002 SCT014 OVC032 12/11 A2982 RMK AO2 T01220106

Conditions at: KALB observed 27 May 2017  05:51 UTC
Temperature: 12.2°C (54°F)
Dewpoint: 10.6°C (51°F) [RH = 90%]
Pressure (altimeter): 29.82 inches Hg (1009.9 mb)
[Sea-level pressure: 1009.9 mb]
Winds: from the N (10 degrees) at 3 MPH (3 knots; 1.6 m/s)
Visibility: 10 or more miles (16+ km)
Ceiling: 1400 feet AGL
Clouds: few clouds at 200 feet AGL
broken clouds at 1400 feet AGL
overcast cloud deck at 3500 feet AGL
Present Weather: no significant weather observed at this time
KALB 270551Z 01003KT 10SM FEW002 BKN014 OVC035 12/11 A2982 RMK AO2 SLP099 BKN V SCT 60000 T01220106 10139 20122 51007

Conditions at: KALB observed 27 May 2017  05:34 UTC
Temperature: 12.2°C (54°F)
Dewpoint: 10.6°C (51°F) [RH = 90%]
Pressure (altimeter): 29.83 inches Hg (1010.2 mb)
Winds: from the NNE (20 degrees) at 5 MPH (4 knots; 2.1 m/s)
Visibility: 10 or more miles (16+ km)
Ceiling: 1400 feet AGL
Clouds: scattered clouds at 700 feet AGL
broken clouds at 1400 feet AGL
overcast cloud deck at 3500 feet AGL
Present Weather: no significant weather observed at this time
KALB 270534Z 02004KT 10SM SCT007 BKN014 OVC035 12/11 A2983 RMK AO2 T01220106

Conditions at: KALB observed 27 May 2017  04:51 UTC
Temperature: 12.2°C (54°F)
Dewpoint: 11.1°C (52°F) [RH = 93%]
Pressure (altimeter): 29.82 inches Hg (1009.9 mb)
[Sea-level pressure: 1009.8 mb]
Winds: from the NNE (30 degrees) at 3 MPH (3 knots; 1.6 m/s)
Visibility: 10 or more miles (16+ km)
Ceiling: 700 feet AGL
Clouds: few clouds at 200 feet AGL
broken clouds at 700 feet AGL
overcast cloud deck at 1400 feet AGL
Present Weather: no significant weather observed at this time
KALB 270451Z 03003KT 10SM FEW002 BKN007 OVC014 12/11 A2982 RMK AO2 DZE05 SLP098 PRESENT WX VCSH P0000 T01220111 401670117

Conditions at: KALB observed 27 May 2017  03:51 UTC
Temperature: 12.8°C (55°F)
Dewpoint: 10.6°C (51°F) [RH = 86%]
Pressure (altimeter): 29.81 inches Hg (1009.6 mb)
[Sea-level pressure: 1009.6 mb]
Winds: from the NNE (30 degrees) at 5 MPH (4 knots; 2.1 m/s)
Visibility: 10 or more miles (16+ km)
Ceiling: 800 feet AGL
Clouds: few clouds at 500 feet AGL
broken clouds at 800 feet AGL
overcast cloud deck at 1800 feet AGL
Present Weather: -DZ  (light drizzle)
KALB 270351Z 03004KT 10SM -DZ FEW005 BKN008 OVC018 13/11 A2981 RMK AO2 RAB0259E11DZB11E18B39 SLP096 P0000 T01280106

Conditions at: KALB observed 27 May 2017  03:40 UTC
Temperature: 12.8°C (55°F)
Dewpoint: 11.1°C (52°F) [RH = 89%]
Pressure (altimeter): 29.81 inches Hg (1009.6 mb)
Winds: from the NE (40 degrees) at 5 MPH (4 knots; 2.1 m/s)
Visibility: 10 or more miles (16+ km)
Ceiling: 900 feet AGL
Clouds: broken clouds at 900 feet AGL
broken clouds at 1800 feet AGL
overcast cloud deck at 2900 feet AGL
Present Weather: -DZ  (light drizzle)
KALB 270340Z 04004KT 10SM -DZ BKN009 BKN018 OVC029 13/11 A2981 RMK AO2 RAB0259E11DZB11E18B39 PCPN VRY LGT P0000 T01280111

Conditions at: KALB observed 27 May 2017  02:51 UTC
Temperature: 12.8°C (55°F)
Dewpoint: 11.1°C (52°F) [RH = 89%]
Pressure (altimeter): 29.80 inches Hg (1009.2 mb)
[Sea-level pressure: 1009.3 mb]
Winds: from the NNE (20 degrees) at 6 MPH (5 knots; 2.6 m/s)
Visibility: 10 or more miles (16+ km)
Ceiling: 1500 feet AGL
Clouds: few clouds at 600 feet AGL
broken clouds at 1500 feet AGL
overcast cloud deck at 2200 feet AGL
Present Weather: no significant weather observed at this time
KALB 270251Z 02005KT 10SM FEW006 BKN015 OVC022 13/11 A2980 RMK AO2 DZE32 SLP093 P0000 60000 T01280111 53025

Conditions at: KALB observed 27 May 2017  01:51 UTC
Temperature: 13.3°C (56°F)
Dewpoint: 11.7°C (53°F) [RH = 90%]
Pressure (altimeter): 29.78 inches Hg (1008.5 mb)
[Sea-level pressure: 1008.4 mb]
Winds: from the NE (40 degrees) at 8 MPH (7 knots; 3.6 m/s)
Visibility: 10 or more miles (16+ km)
Ceiling: 2200 feet AGL
Clouds: scattered clouds at 1000 feet AGL
broken clouds at 2200 feet AGL
overcast cloud deck at 3000 feet AGL
Present Weather: -DZ  (light drizzle)
KALB 270151Z 04007KT 10SM -DZ SCT010 BKN022 OVC030 13/12 A2978 RMK AO2 SLP084 P0000 T01330117

Conditions at: KALB observed 27 May 2017  01:35 UTC
Temperature: 13.9°C (57°F)
Dewpoint: 11.7°C (53°F) [RH = 87%]
Pressure (altimeter): 29.77 inches Hg (1008.2 mb)
Winds: from the NE (40 degrees) at 8 MPH (7 knots; 3.6 m/s)
Visibility: 10 or more miles (16+ km)
Ceiling: 1700 feet AGL
Clouds: few clouds at 800 feet AGL
broken clouds at 1700 feet AGL
overcast cloud deck at 3000 feet AGL
Present Weather: -DZ  (light drizzle)
KALB 270135Z 04007KT 10SM -DZ FEW008 BKN017 OVC030 14/12 A2977 RMK AO2 P0000 T01390117

Conditions at: KALB observed 27 May 2017  00:51 UTC
Temperature: 13.9°C (57°F)
Dewpoint: 12.2°C (54°F) [RH = 89%]
Pressure (altimeter): 29.75 inches Hg (1007.5 mb)
[Sea-level pressure: 1007.6 mb]
Winds: from the NNE (30 degrees) at 3 MPH (3 knots; 1.6 m/s)
Visibility: 10 or more miles (16+ km)
Ceiling: 3900 feet AGL
Clouds: few clouds at 700 feet AGL
broken clouds at 3900 feet AGL
overcast cloud deck at 7000 feet AGL
Present Weather: -DZ  (light drizzle)
KALB 270051Z 03003KT 10SM -DZ FEW007 BKN039 OVC070 14/12 A2975 RMK AO2 DZB49 SLP076 PCPN VRY LGT BINOVC P0000 T01390122

Conditions at: KALB observed 26 May 2017  23:51 UTC
Temperature: 13.9°C (57°F)
Dewpoint: 12.2°C (54°F) [RH = 89%]
Pressure (altimeter): 29.73 inches Hg (1006.9 mb)
[Sea-level pressure: 1006.8 mb]
Winds: from the NNE (20 degrees) at 5 MPH (4 knots; 2.1 m/s)
Visibility: 10 or more miles (16+ km)
Ceiling: 4700 feet AGL
Clouds: few clouds at 700 feet AGL
broken clouds at 4700 feet AGL
overcast cloud deck at 7000 feet AGL
Present Weather: no significant weather observed at this time
KALB 262351Z 02004KT 10SM FEW007 BKN047 OVC070 14/12 A2973 RMK AO2 DZE30 SLP068 OCNL BINOVC P0000 60014 T01390122 10167 20139 53032

Conditions at: KALB observed 26 May 2017  23:15 UTC
Temperature: 13.9°C (57°F)
Dewpoint: 12.2°C (54°F) [RH = 89%]
Pressure (altimeter): 29.71 inches Hg (1006.2 mb)
Winds: from the NNE (30 degrees) at 7 MPH (6 knots; 3.1 m/s)
Visibility: 10 or more miles (16+ km)
Ceiling: 3500 feet AGL
Clouds: few clouds at 1500 feet AGL
scattered clouds at 2400 feet AGL
overcast cloud deck at 3500 feet AGL
Present Weather: -DZ  (light drizzle)
KALB 262315Z 03006KT 10SM -DZ FEW015 SCT024 OVC035 14/12 A2971 RMK AO2 PCPN VRY LGT P0000 T01390122

Conditions at: KALB observed 26 May 2017  22:51 UTC
Temperature: 15.0°C (59°F)
Dewpoint: 13.3°C (56°F) [RH = 90%]
Pressure (altimeter): 29.70 inches Hg (1005.8 mb)
[Sea-level pressure: 1005.6 mb]
Winds: from the NNE (30 degrees) at 7 MPH (6 knots; 3.1 m/s)
Visibility: 8 miles (13 km)
Ceiling: 2400 feet AGL
Clouds: scattered clouds at 1200 feet AGL
broken clouds at 2400 feet AGL
overcast cloud deck at 3500 feet AGL
Present Weather: -DZ  (light drizzle)
KALB 262251Z 03006KT 8SM -DZ SCT012 BKN024 OVC035 15/13 A2970 RMK AO2 DZB32 SLP056 PCPN VRY LGT P0000 T01500133

Conditions at: KALB observed 26 May 2017  22:38 UTC
Temperature: 15.6°C (60°F)
Dewpoint: 13.3°C (56°F) [RH = 86%]
Pressure (altimeter): 29.69 inches Hg (1005.5 mb)
Winds: from the NNE (30 degrees) at 10 MPH (9 knots; 4.7 m/s)
Visibility: 10 or more miles (16+ km)
Ceiling: 3500 feet AGL
Clouds: scattered clouds at 1000 feet AGL
scattered clouds at 1900 feet AGL
overcast cloud deck at 3500 feet AGL
Present Weather: -DZ  (light drizzle)
KALB 262238Z 03009KT 10SM -DZ SCT010 SCT019 OVC035 16/13 A2969 RMK AO2 DZB32 PCPN VRY LGT P0000 T01560133

Conditions at: KALB observed 26 May 2017  22:10 UTC
Temperature: 16.1°C (61°F)
Dewpoint: 13.9°C (57°F) [RH = 87%]
Pressure (altimeter): 29.67 inches Hg (1004.8 mb)
Winds: from the WNW (300 degrees) at 9 MPH (8 knots; 4.2 m/s)
Visibility: 10 or more miles (16+ km)
Ceiling: 800 feet AGL
Clouds: broken clouds at 800 feet AGL
broken clouds at 1900 feet AGL
overcast cloud deck at 3500 feet AGL
Present Weather: no significant weather observed at this time
KALB 262210Z 30008KT 10SM BKN008 BKN019 OVC035 16/14 A2967 RMK AO2 T01610139

Conditions at: KALB observed 26 May 2017  21:51 UTC
Temperature: 16.1°C (61°F)
Dewpoint: 14.4°C (58°F) [RH = 90%]
Pressure (altimeter): 29.66 inches Hg (1004.5 mb)
[Sea-level pressure: 1004.4 mb]
Winds: from the NNW (340 degrees) at 5 MPH (4 knots; 2.1 m/s)
Visibility: 10 or more miles (16+ km)
Ceiling: 3500 feet AGL
Clouds: few clouds at 800 feet AGL
broken clouds at 3500 feet AGL
overcast cloud deck at 5500 feet AGL
Present Weather: no significant weather observed at this time
KALB 262151Z 34004KT 10SM FEW008 BKN035 OVC055 16/14 A2966 RMK AO2 DZE10RAB10E36 SLP044 P0001 T01610144

Conditions at: KALB observed 26 May 2017  20:59 UTC
Temperature: 16.1°C (61°F)
Dewpoint: 14.4°C (58°F) [RH = 90%]
Pressure (altimeter): 29.64 inches Hg (1003.8 mb)
Winds: from the NW (320 degrees) at 7 MPH (6 knots; 3.1 m/s)
Visibility: 7 miles (11 km)
Ceiling: 3500 feet AGL
Clouds: scattered clouds at 600 feet AGL
broken clouds at 3500 feet AGL
overcast cloud deck at 5000 feet AGL
Present Weather: -DZ  (light drizzle)
KALB 262059Z 32006KT 7SM -DZ SCT006 BKN035 OVC050 16/14 A2964 RMK AO2 PCPN VRY LGT P0000 T01610144

Conditions at: KALB observed 26 May 2017  20:51 UTC
Temperature: 16.1°C (61°F)
Dewpoint: 13.9°C (57°F) [RH = 87%]
Pressure (altimeter): 29.63 inches Hg (1003.5 mb)
[Sea-level pressure: 1003.5 mb]
Winds: from the NW (320 degrees) at 7 MPH (6 knots; 3.1 m/s)
Visibility: 1.25 miles (2.01 km)
Ceiling: 3500 feet AGL
Clouds: scattered clouds at 600 feet AGL
scattered clouds at 1500 feet AGL
overcast cloud deck at 3500 feet AGL
Present Weather: -DZ BR  (light drizzle, mist)
KALB 262051Z 32006KT 1 1/4SM -DZ BR SCT006 SCT015 OVC035 16/14 A2963 RMK AO2 SFC VIS 6 RAE27DZB27 SLP035 PCPN VRY LGT P0004 60013 T01610139 53017

Conditions at: KALB observed 26 May 2017  20:33 UTC
Temperature: 15.6°C (60°F)
Dewpoint: 13.9°C (57°F) [RH = 90%]
Pressure (altimeter): 29.63 inches Hg (1003.5 mb)
Winds: from the NW (320 degrees) at 6 MPH (5 knots; 2.6 m/s)
Visibility: 1.25 miles (2.01 km)
Ceiling: 3000 feet AGL
Clouds: scattered clouds at 600 feet AGL
scattered clouds at 1500 feet AGL
overcast cloud deck at 3000 feet AGL
Present Weather: -DZ BR  (light drizzle, mist)
KALB 262033Z 32005KT 1 1/4SM -DZ BR SCT006 SCT015 OVC030 16/14 A2963 RMK AO2 SFC VIS 2 1/2 RAE27DZB27 P0004 T01560139